Aerbrava en el facebook Aerbrava en el twitter Google+ Instagram Aerbrava en el youtube tumblr flikr pinterest
aerbrava en catal&agà Aerbrava in English
Escuela de Pilotos
Teléfono 972234126 972 23 41 26
 
aerbrava en català Aerbrava in English
Aerbrava - Meteorología

Información meteorológica aeronáutica

 

En este apartado aparece la información meteorológica aeronáutica que es utilizada en las prácticas de los alumnos de la Escuela de Pilotos de nuestro centro durante su formación, por lo que puede no ser actual y se debería utilizar por su propia cuenta y riesgo. AERBRAVA no se hace responsable de su uso.

 

TIEMPO ACTUAL

Satélite Meteorológico

sat24.com

Servei Meteorològic de Catalunya

 

LEGE 181030Z 22007KT 170V300 CAVOK 29/17 Q1016
LEGE 181000Z 20007KT 170V240 CAVOK 29/16 Q1016
LEGE 180930Z 19005KT 140V250 CAVOK 28/17 Q1016
LEGE 180900Z 18003KT 110V270 CAVOK 27/16 Q1016
LEGE 180830Z 20004KT 150V260 CAVOK 26/17 Q1017
LEGE 180800Z 19001KT CAVOK 26/18 Q1017
LEGE 180730Z 00000KT CAVOK 24/19 Q1017
LEGE 180700Z VRB01KT CAVOK 22/18 Q1017
TAF LEGE 180500Z 1806/1906 VRB03KT 9999 FEW030 TX33/1813Z TN19/1905Z
BECMG 1809/1811 18010KT
TEMPO 1812/1818 17015G28KT
BECMG 1819/1821 VRB04KT

Aviation Weather

 
Aerbrava en el facebook Aerbrava en el twitter Google+ Instagram Aerbrava en el youtube tumblr flikr pinterest

¡CSS Vàlid!